メインページ
METAR-TAF:

METAR-TAF

空港 :

バーレーン国際空港

バーレーン, バーレーン

緯度: 26-16N, 経度: 050-39E, 海抜: 2m

現時点の気象観測

当レポートは33分前の02:00(UTC)に作成
北/北西の風 6kt
気温 21°C
湿度 83%
気圧 1021 hPa
視程10km以上
1,500メートル以下は雲なし、積乱雲なし

METAR: OBBI 150200Z 33006KT CAVOK 21/18 Q1021 NOSIG

時間: 05:33 (02:33 UTC)

予報

当レポートは3時間33分前の23:00(UTC)に作成
予報は15日の 00時(UTC)から 16日の 06時(UTC)まで有効
北/北西の風 12kt
視程10km以上
高度2000ftの雲は散在している

TAF: OBBI 142300Z 1500/1606 34012KT 9999 SCT020

4,000以上の空港の気象観測と天気予報(METAR報とTAF報)

利用可能な観測所は地図上に黄色い丸と赤い丸で示す。

丸の上にカーソルを重ねると観測所名を参照できる。

次にクリックすると気象観測と天気予報を参照できる。

マップの切り替え:黒色「×」印の緑ボタンをクリックして拡大、「-」印の緑ボタンをクリックして縮小、緑色の三角印をクリックして隣りの地図に切り替え


METAR-TAF: